createdAt,value
2022-12-07T00:04:32.279Z,43.20
2022-12-07T00:09:34.473Z,37.30
2022-12-07T00:14:38.375Z,40.00
2022-12-07T00:19:39.382Z,42.80
2022-12-07T00:24:40.375Z,38.90
2022-12-07T00:29:41.523Z,41.40
2022-12-07T00:34:42.667Z,41.80
2022-12-07T00:39:43.848Z,44.00
2022-12-07T00:44:44.792Z,40.60
2022-12-07T00:49:45.935Z,44.60
2022-12-07T00:54:46.922Z,41.70
2022-12-07T00:59:48.655Z,40.10
2022-12-07T01:04:49.892Z,39.10
2022-12-07T01:09:50.976Z,46.90
2022-12-07T01:14:51.936Z,40.90
2022-12-07T01:19:53.183Z,38.00
2022-12-07T01:24:54.107Z,39.60
2022-12-07T01:29:55.067Z,43.10
2022-12-07T01:34:56.326Z,40.70
2022-12-07T01:39:57.261Z,44.70
2022-12-07T01:45:38.327Z,46.50
2022-12-07T01:50:42.236Z,42.50
2022-12-07T01:55:48.385Z,42.90
2022-12-07T02:00:49.421Z,39.20
2022-12-07T02:05:51.638Z,40.40
2022-12-07T02:10:52.879Z,38.60
2022-12-07T02:16:21.563Z,36.60
2022-12-07T02:21:37.948Z,32.40
2022-12-07T02:26:50.711Z,31.00
2022-12-07T02:32:25.243Z,29.10
2022-12-07T02:37:48.342Z,26.70
2022-12-07T02:43:10.600Z,22.60
2022-12-07T02:48:15.802Z,21.70
2022-12-07T02:53:35.168Z,21.60
2022-12-07T02:58:58.422Z,22.30
2022-12-07T03:04:23.296Z,20.60
2022-12-07T03:09:36.154Z,20.90
2022-12-07T03:14:46.448Z,18.10
2022-12-07T03:19:50.743Z,15.70
2022-12-07T03:24:57.645Z,17.20
2022-12-07T03:30:03.521Z,20.00
2022-12-07T03:35:38.592Z,19.10
2022-12-07T03:40:55.480Z,19.80
2022-12-07T03:46:09.868Z,22.00
2022-12-07T03:51:16.406Z,20.50
2022-12-07T03:56:17.990Z,26.10
2022-12-07T04:01:19.339Z,25.30
2022-12-07T04:06:20.526Z,22.10
2022-12-07T04:11:21.409Z,21.50
2022-12-07T04:16:22.365Z,22.10
2022-12-07T04:21:23.374Z,35.30
2022-12-07T04:26:24.312Z,26.00
2022-12-07T04:31:25.324Z,31.20
2022-12-07T04:36:26.351Z,33.00
2022-12-07T04:41:27.540Z,26.20
2022-12-07T04:46:30.809Z,25.80
2022-12-07T04:51:31.772Z,28.00
2022-12-07T04:56:34.937Z,26.20
2022-12-07T05:01:35.899Z,23.40
2022-12-07T05:06:36.987Z,24.60
2022-12-07T05:11:40.832Z,37.90
2022-12-07T05:16:43.360Z,41.40
2022-12-07T05:21:44.873Z,34.50
2022-12-07T05:26:46.011Z,26.80
2022-12-07T05:31:47.222Z,24.20
2022-12-07T05:36:48.555Z,24.20
2022-12-07T05:42:08.477Z,26.80
2022-12-07T05:47:10.413Z,27.90
2022-12-07T05:52:11.535Z,27.50
2022-12-07T05:57:12.523Z,29.10
2022-12-07T06:02:16.155Z,25.10
2022-12-07T06:07:17.726Z,20.00
2022-12-07T06:12:33.969Z,19.80
2022-12-07T06:17:34.949Z,19.10
2022-12-07T06:22:35.906Z,16.20
2022-12-07T06:27:36.873Z,17.40
2022-12-07T06:32:37.940Z,14.00
2022-12-07T06:37:39.260Z,16.30
2022-12-07T06:42:40.317Z,17.20
2022-12-07T06:47:42.941Z,16.50
2022-12-07T06:52:45.110Z,15.20
2022-12-07T06:57:46.044Z,15.60
2022-12-07T07:02:47.061Z,17.10
2022-12-07T07:08:20.756Z,13.80
2022-12-07T07:13:10.931Z,14.50
2022-12-07T07:18:11.985Z,15.30
2022-12-07T07:23:13.105Z,15.40
2022-12-07T07:28:15.112Z,16.90
2022-12-07T07:33:16.151Z,22.50
2022-12-07T07:38:17.236Z,26.00
2022-12-07T07:43:18.186Z,26.40
2022-12-07T07:48:19.180Z,28.00
2022-12-07T07:53:20.172Z,27.30
2022-12-07T07:58:21.875Z,28.40
2022-12-07T08:03:22.864Z,26.20
2022-12-07T08:08:23.852Z,30.10
2022-12-07T08:13:30.615Z,32.60
2022-12-07T08:18:36.830Z,34.70
2022-12-07T08:23:40.015Z,35.00
2022-12-07T08:28:41.368Z,37.10
2022-12-07T08:33:42.885Z,33.30
2022-12-07T08:38:56.341Z,34.50
2022-12-07T08:44:05.997Z,32.90
2022-12-07T08:49:14.362Z,35.20
2022-12-07T08:54:18.549Z,33.70
2022-12-07T08:59:21.084Z,33.70
2022-12-07T09:04:22.056Z,33.80
2022-12-07T09:09:23.113Z,35.50
2022-12-07T09:14:24.424Z,29.90
2022-12-07T09:19:25.316Z,28.40
2022-12-07T09:24:26.620Z,28.90
2022-12-07T09:29:27.608Z,35.80
2022-12-07T09:34:32.237Z,32.60
2022-12-07T09:39:33.292Z,31.60
2022-12-07T09:44:35.827Z,37.10
2022-12-07T09:49:36.753Z,37.80
2022-12-07T09:54:43.425Z,28.00
2022-12-07T09:59:44.595Z,25.70
2022-12-07T10:04:46.310Z,25.20
2022-12-07T10:09:48.164Z,24.60
2022-12-07T10:15:09.830Z,22.50
2022-12-07T10:20:25.314Z,18.60
2022-12-07T10:25:38.461Z,22.00
2022-12-07T10:30:58.149Z,20.80
2022-12-07T10:36:01.009Z,19.90
2022-12-07T10:41:07.385Z,20.00
2022-12-07T10:46:32.687Z,17.00
2022-12-07T10:51:50.793Z,17.70
2022-12-07T11:02:25.210Z,20.50
2022-12-07T11:07:57.036Z,17.20
2022-12-07T11:13:27.892Z,18.10
2022-12-07T11:18:57.600Z,19.90
2022-12-07T11:24:10.333Z,17.40
2022-12-07T11:29:42.596Z,15.60
2022-12-07T11:35:02.040Z,19.30
2022-12-07T11:40:25.926Z,13.40
2022-12-07T11:45:31.191Z,15.30
2022-12-07T11:50:50.485Z,10.70
2022-12-07T11:56:04.126Z,11.20
2022-12-07T12:01:13.965Z,9.30
2022-12-07T12:06:15.344Z,12.10
2022-12-07T12:11:48.713Z,7.60
2022-12-07T12:17:00.947Z,7.70
2022-12-07T12:22:18.771Z,8.80
2022-12-07T12:27:33.479Z,8.60
2022-12-07T12:32:41.832Z,8.20
2022-12-07T12:37:43.555Z,7.30
2022-12-07T12:42:47.740Z,7.00
2022-12-07T12:47:55.410Z,8.60
2022-12-07T12:58:17.446Z,8.60
2022-12-07T13:03:29.234Z,9.40
2022-12-07T13:08:35.083Z,10.40
2022-12-07T13:13:36.667Z,9.90
2022-12-07T13:18:38.870Z,8.00
2022-12-07T13:23:45.895Z,10.20
2022-12-07T13:29:05.290Z,10.80
2022-12-07T13:34:29.485Z,9.50
2022-12-07T13:39:35.127Z,10.10
2022-12-07T13:44:42.559Z,11.30
2022-12-07T13:49:54.018Z,8.80
2022-12-07T13:54:56.805Z,8.90
2022-12-07T13:59:58.920Z,11.10
2022-12-07T14:05:10.543Z,10.30
2022-12-07T14:10:28.133Z,10.40
2022-12-07T14:15:32.521Z,9.00
2022-12-07T14:20:36.953Z,10.50
2022-12-07T14:25:52.708Z,11.20
2022-12-07T14:30:53.766Z,10.00
2022-12-07T14:35:55.959Z,8.50
2022-12-07T14:41:20.252Z,9.30
2022-12-07T14:46:21.368Z,7.80
2022-12-07T14:56:44.167Z,8.60
2022-12-07T15:01:45.159Z,9.60
2022-12-07T15:07:00.896Z,9.60
2022-12-07T15:12:01.846Z,9.50
2022-12-07T15:17:16.640Z,9.80
2022-12-07T15:22:23.818Z,9.90
2022-12-07T15:27:24.764Z,9.10
2022-12-07T15:32:25.889Z,10.10
2022-12-07T15:37:27.056Z,8.80
2022-12-07T15:42:28.086Z,12.10
2022-12-07T15:48:19.853Z,21.20
2022-12-07T15:53:03.008Z,39.90
2022-12-07T15:58:04.170Z,38.40
2022-12-07T16:03:05.199Z,29.10
2022-12-07T16:08:06.284Z,34.30
2022-12-07T16:13:07.337Z,29.10
2022-12-07T16:18:08.902Z,28.70
2022-12-07T16:23:09.820Z,30.80
2022-12-07T16:28:10.776Z,20.20
2022-12-07T16:33:12.398Z,24.20
2022-12-07T16:38:13.319Z,33.40
2022-12-07T16:43:14.832Z,32.60
2022-12-07T16:48:16.390Z,28.60
2022-12-07T16:53:17.361Z,24.70
2022-12-07T16:58:18.587Z,20.70
2022-12-07T17:03:20.861Z,23.40
2022-12-07T17:08:22.115Z,19.20
2022-12-07T17:13:42.162Z,23.80
2022-12-07T17:18:43.088Z,25.90
2022-12-07T17:23:44.110Z,24.10
2022-12-07T17:28:45.255Z,24.10
2022-12-07T17:33:46.462Z,28.70
2022-12-07T17:38:48.011Z,26.30
2022-12-07T17:43:48.952Z,22.10
2022-12-07T17:48:49.829Z,19.10
2022-12-07T17:53:51.031Z,22.40
2022-12-07T17:58:51.937Z,25.10
2022-12-07T18:03:52.944Z,21.80
2022-12-07T18:08:54.101Z,22.40
2022-12-07T18:13:55.180Z,21.50
2022-12-07T18:19:00.866Z,19.40
2022-12-07T18:24:03.844Z,34.30
2022-12-07T18:29:06.637Z,37.60
2022-12-07T18:34:13.781Z,25.90
2022-12-07T18:39:16.345Z,24.40
2022-12-07T18:44:17.495Z,37.20
2022-12-07T18:49:18.456Z,21.50
2022-12-07T18:54:19.906Z,47.80
2022-12-07T18:59:39.475Z,30.20
2022-12-07T19:04:40.828Z,30.60
2022-12-07T19:09:41.875Z,24.70
2022-12-07T19:14:42.846Z,28.30
2022-12-07T19:19:45.887Z,21.90
2022-12-07T19:24:52.476Z,25.40
2022-12-07T19:29:53.553Z,21.90
2022-12-07T19:34:55.579Z,21.30
2022-12-07T19:39:56.517Z,15.50
2022-12-07T19:44:57.410Z,18.70
2022-12-07T19:49:58.329Z,17.50
2022-12-07T19:54:59.305Z,18.40
2022-12-07T20:00:00.185Z,14.70
2022-12-07T20:05:05.892Z,18.00
2022-12-07T20:10:08.121Z,18.80
2022-12-07T20:15:09.672Z,32.70
2022-12-07T20:20:10.835Z,33.30
2022-12-07T20:25:11.895Z,27.90
2022-12-07T20:30:13.467Z,26.70
2022-12-07T20:35:14.471Z,27.80
2022-12-07T20:40:15.617Z,30.10
2022-12-07T20:45:16.733Z,35.20
2022-12-07T20:50:17.731Z,39.50
2022-12-07T20:55:18.689Z,37.40
2022-12-07T21:00:19.817Z,35.80
2022-12-07T21:05:20.854Z,29.20
2022-12-07T21:10:22.033Z,30.90
2022-12-07T21:15:23.142Z,26.00
2022-12-07T21:20:24.132Z,26.50
2022-12-07T21:25:25.057Z,25.60
2022-12-07T21:30:25.973Z,22.80
2022-12-07T21:35:26.924Z,23.60
2022-12-07T21:40:27.905Z,32.40
2022-12-07T21:45:31.359Z,29.40
2022-12-07T21:50:35.616Z,21.50
2022-12-07T21:55:40.723Z,27.40
2022-12-07T22:00:41.649Z,25.90
2022-12-07T22:05:42.632Z,26.20
2022-12-07T22:10:43.575Z,23.80
2022-12-07T22:15:44.573Z,22.90
2022-12-07T22:20:45.614Z,25.10
2022-12-07T22:25:46.552Z,20.80
2022-12-07T22:30:47.467Z,25.40
2022-12-07T22:35:52.420Z,19.70
2022-12-07T22:40:54.571Z,21.50
2022-12-07T22:45:56.298Z,25.80
2022-12-07T22:50:57.304Z,23.20
2022-12-07T22:55:58.360Z,22.80
2022-12-07T23:00:59.374Z,19.10
2022-12-07T23:06:07.259Z,21.10
2022-12-07T23:11:34.561Z,24.40
2022-12-07T23:16:39.258Z,24.10
2022-12-07T23:21:40.655Z,21.70
2022-12-07T23:26:42.860Z,20.60
2022-12-07T23:31:44.353Z,19.20
2022-12-07T23:36:45.586Z,20.10
2022-12-07T23:41:46.695Z,17.70
2022-12-07T23:46:47.957Z,22.80
2022-12-07T23:51:48.996Z,18.40
2022-12-07T23:56:50.058Z,16.50
